createdAt,value
2016-05-05T00:00:03.164Z,57.9
2016-05-05T00:01:03.042Z,57.33
2016-05-05T00:02:03.232Z,57.9
2016-05-05T00:03:03.266Z,57.43
2016-05-05T00:04:03.300Z,57.62
2016-05-05T00:05:03.333Z,57.81
2016-05-05T00:06:03.367Z,58
2016-05-05T00:07:03.386Z,58.18
2016-05-05T00:08:03.419Z,57.52
2016-05-05T00:09:03.298Z,57.9
2016-05-05T00:10:03.488Z,58.66
2016-05-05T00:11:03.506Z,58
2016-05-05T00:12:03.540Z,57.33
2016-05-05T00:13:03.589Z,56.95
2016-05-05T00:14:03.608Z,57.04
2016-05-05T00:15:03.641Z,57.43
2016-05-05T00:16:03.676Z,57.71
2016-05-05T00:17:03.709Z,57.33
2016-05-05T00:18:03.744Z,56.95
2016-05-05T00:19:03.762Z,57.43
2016-05-05T00:20:03.796Z,57.33
2016-05-05T00:21:03.830Z,57.71
2016-05-05T00:22:03.863Z,57.14
2016-05-05T00:23:03.741Z,57.33
2016-05-05T00:24:03.760Z,57.14
2016-05-05T00:25:03.965Z,57.24
2016-05-05T00:26:03.999Z,56.85
2016-05-05T00:27:04.018Z,56.95
2016-05-05T00:28:04.051Z,58
2016-05-05T00:29:04.086Z,58.09
2016-05-05T00:30:04.119Z,58
2016-05-05T00:31:04.138Z,57.62
2016-05-05T00:32:04.187Z,57.9
2016-05-05T00:33:04.049Z,58.09
2016-05-05T00:34:04.240Z,58.25
2016-05-05T00:35:04.273Z,58.25
2016-05-05T00:36:04.323Z,58.06
2016-05-05T00:37:04.201Z,58.06
2016-05-05T00:38:04.375Z,58.35
2016-05-05T00:39:04.394Z,58.57
2016-05-05T00:40:04.443Z,57.97
2016-05-05T00:41:04.461Z,58.18
2016-05-05T00:42:04.496Z,57.9
2016-05-05T00:43:04.530Z,58
2016-05-05T00:44:04.563Z,57.9
2016-05-05T00:45:04.582Z,58.09
2016-05-05T00:46:04.615Z,58.47
2016-05-05T00:47:04.650Z,58.47
2016-05-05T00:48:04.683Z,57.9
2016-05-05T00:49:04.718Z,57.9
2016-05-05T00:50:04.751Z,57.9
2016-05-05T00:51:04.614Z,58.28
2016-05-05T00:52:04.804Z,58.95
2016-05-05T00:53:04.838Z,58.28
2016-05-05T00:54:04.715Z,58.47
2016-05-05T00:55:04.921Z,57.52
2016-05-05T00:56:04.924Z,57.81
2016-05-05T00:57:04.958Z,58
2016-05-05T00:58:04.836Z,58.44
2016-05-05T00:59:05.026Z,58.83
2016-05-05T01:00:05.059Z,58.73
2016-05-05T01:01:05.078Z,58.73
2016-05-05T01:02:04.956Z,59.39
2016-05-05T01:03:05.145Z,59.77
2016-05-05T01:04:05.180Z,59.77
2016-05-05T01:05:05.214Z,59.87
2016-05-05T01:06:05.248Z,59.58
2016-05-05T01:07:05.281Z,59.39
2016-05-05T01:08:05.144Z,59.11
2016-05-05T01:09:05.880Z,59.2
2016-05-05T01:10:05.367Z,58.63
2016-05-05T01:11:05.386Z,58.83
2016-05-05T01:12:05.435Z,59.3
2016-05-05T01:13:05.454Z,59.87
2016-05-05T01:14:05.488Z,60.35
2016-05-05T01:15:05.522Z,60.79
2016-05-05T01:16:05.556Z,61.55
2016-05-05T01:17:05.590Z,61.55
2016-05-05T01:18:05.624Z,61.45
2016-05-05T01:19:05.501Z,61.45
2016-05-05T01:20:05.676Z,61.45
2016-05-05T01:21:05.710Z,62.02
2016-05-05T01:22:05.744Z,61.83
2016-05-05T01:23:05.777Z,62.21
2016-05-05T01:24:06.265Z,62.69
2016-05-05T01:25:05.830Z,62.69
2016-05-05T01:26:05.865Z,63.35
2016-05-05T01:27:05.898Z,62.97
2016-05-05T01:28:05.932Z,62.69
2016-05-05T01:29:05.950Z,62.69
2016-05-05T01:30:05.984Z,62.69
2016-05-05T01:31:06.018Z,62.5
2016-05-05T01:32:06.052Z,63.35
2016-05-05T01:33:06.086Z,63.07
2016-05-05T01:34:05.948Z,62.97
2016-05-05T01:35:06.139Z,63.07
2016-05-05T01:36:06.017Z,62.78
2016-05-05T01:37:06.206Z,62.97
2016-05-05T01:38:06.240Z,62.69
2016-05-05T01:39:06.258Z,62.78
2016-05-05T01:40:06.292Z,62.5
2016-05-05T01:41:06.342Z,62.59
2016-05-05T01:42:06.361Z,62.12
2016-05-05T01:43:06.394Z,62.69
2016-05-05T01:44:06.413Z,62.31
2016-05-05T01:45:06.447Z,62.5
2016-05-05T01:46:06.480Z,62.5
2016-05-05T01:47:06.357Z,62.59
2016-05-05T01:48:06.548Z,61.55
2016-05-05T01:49:06.597Z,62.59
2016-05-05T01:50:06.600Z,62.78
2016-05-05T01:51:06.619Z,62.78
2016-05-05T01:52:06.689Z,62.69
2016-05-05T01:53:06.765Z,62.88
2016-05-05T01:54:06.827Z,62.59
2016-05-05T01:55:06.903Z,62.4
2016-05-05T01:56:06.979Z,62.4
2016-05-05T01:57:07.043Z,62.97
2016-05-05T01:58:07.092Z,62.97
2016-05-05T01:59:07.125Z,62.97
2016-05-05T02:00:07.175Z,62.97
2016-05-05T02:01:07.225Z,63.26
2016-05-05T02:02:07.254Z,62.78
2016-05-05T02:03:07.309Z,61.93
2016-05-05T02:04:41.660Z,63.07
2016-05-05T02:05:07.217Z,62.78
2016-05-05T02:06:07.256Z,62.69
2016-05-05T02:07:07.450Z,63.17
2016-05-05T02:08:07.314Z,62.59
2016-05-05T02:09:07.522Z,62.88
2016-05-05T02:10:07.386Z,63.17
2016-05-05T02:11:07.577Z,63.17
2016-05-05T02:12:07.629Z,63.26
2016-05-05T02:13:07.649Z,63.07
2016-05-05T02:14:07.666Z,63.54
2016-05-05T02:15:07.546Z,63.54
2016-05-05T02:16:07.736Z,63.89
2016-05-05T02:17:07.771Z,64.11
2016-05-05T02:18:07.790Z,65.12
2016-05-05T02:19:07.824Z,64.75
2016-05-05T02:20:07.858Z,64.94
2016-05-05T02:21:07.892Z,65.31
2016-05-05T02:22:07.912Z,65.41
2016-05-05T02:23:07.947Z,65.12
2016-05-05T02:24:07.824Z,64.94
2016-05-05T02:25:08.015Z,64.56
2016-05-05T02:26:08.032Z,65.12
2016-05-05T02:27:08.082Z,65.22
2016-05-05T02:28:08.117Z,65.22
2016-05-05T02:29:08.135Z,64.87
2016-05-05T02:30:08.154Z,64.84
2016-05-05T02:31:08.187Z,65.5
2016-05-05T02:32:08.221Z,65.5
2016-05-05T02:33:08.255Z,65.69
2016-05-05T02:34:08.289Z,65.31
2016-05-05T02:35:08.323Z,65.5
2016-05-05T02:36:08.356Z,65.79
2016-05-05T02:37:08.375Z,66.46
2016-05-05T02:38:08.409Z,66.27
2016-05-05T02:39:08.287Z,66.08
2016-05-05T02:40:08.462Z,66.36
2016-05-05T02:41:08.495Z,67.21
2016-05-05T02:42:08.530Z,67.12
2016-05-05T02:43:08.547Z,66.83
2016-05-05T02:44:08.582Z,67.59
2016-05-05T02:45:08.616Z,67.59
2016-05-05T02:46:08.493Z,67.69
2016-05-05T02:47:08.683Z,67.79
2016-05-05T02:48:08.717Z,68.16
2016-05-05T02:49:08.735Z,68.64
2016-05-05T02:50:08.786Z,68.44
2016-05-05T02:51:08.804Z,68.35
2016-05-05T02:52:08.838Z,68.64
2016-05-05T02:53:08.855Z,68.73
2016-05-05T02:54:09.265Z,69.49
2016-05-05T02:55:08.924Z,69.55
2016-05-05T02:56:08.958Z,69.02
2016-05-05T02:57:08.976Z,69.02
2016-05-05T02:58:09.010Z,69.02
2016-05-05T02:59:09.044Z,68.83
2016-05-05T03:00:09.063Z,68.54
2016-05-05T03:01:09.096Z,68.44
2016-05-05T03:02:09.130Z,67.79
2016-05-05T03:03:09.007Z,68.44
2016-05-05T03:04:09.182Z,68.44
2016-05-05T03:05:09.217Z,69.4
2016-05-05T03:06:09.250Z,69.11
2016-05-05T03:07:09.284Z,69.02
2016-05-05T03:08:09.318Z,69.11
2016-05-05T03:09:09.196Z,69.96
2016-05-05T03:10:09.370Z,69.84
2016-05-05T03:11:09.403Z,69.21
2016-05-05T03:12:09.438Z,69.4
2016-05-05T03:13:09.472Z,68.44
2016-05-05T03:14:09.506Z,68.44
2016-05-05T03:15:09.524Z,68.54
2016-05-05T03:16:09.402Z,68.44
2016-05-05T03:17:09.420Z,68.26
2016-05-05T03:18:09.455Z,68.54
2016-05-05T03:19:09.645Z,68.54
2016-05-05T03:20:09.678Z,69.3
2016-05-05T03:21:09.712Z,69.11
2016-05-05T03:22:09.746Z,69.49
2016-05-05T03:23:09.765Z,68.98
2016-05-05T03:24:09.643Z,68.83
2016-05-05T03:25:09.833Z,69.02
2016-05-05T03:26:09.694Z,69.65
2016-05-05T03:27:09.901Z,69.08
2016-05-05T03:28:09.918Z,69.36
2016-05-05T03:29:09.782Z,69.46
2016-05-05T03:30:10.002Z,68.79
2016-05-05T03:31:10.004Z,69.27
2016-05-05T03:32:10.039Z,68.92
2016-05-05T03:33:10.073Z,69.4
2016-05-05T03:34:10.091Z,69.84
2016-05-05T03:35:10.126Z,69.93
2016-05-05T03:36:10.159Z,69.93
2016-05-05T03:37:10.193Z,70.5
2016-05-05T03:38:10.212Z,70.4
2016-05-05T03:39:10.370Z,70.31
2016-05-05T03:40:10.279Z,70.69
2016-05-05T03:41:10.313Z,70.69
2016-05-05T03:42:10.331Z,70.88
2016-05-05T03:43:10.381Z,70.78
2016-05-05T03:44:10.400Z,70.88
2016-05-05T03:45:10.417Z,70.78
2016-05-05T03:46:10.467Z,70.59
2016-05-05T03:47:10.486Z,71.17
2016-05-05T03:48:10.520Z,71.17
2016-05-05T03:49:10.397Z,71.36
2016-05-05T03:50:10.587Z,70.5
2016-05-05T03:51:10.605Z,70.4
2016-05-05T03:52:10.639Z,70.31
2016-05-05T03:53:10.673Z,69.55
2016-05-05T03:54:10.551Z,69.84
2016-05-05T03:55:10.726Z,69.55
2016-05-05T03:56:10.760Z,70.31
2016-05-05T03:57:10.778Z,70.5
2016-05-05T03:58:10.812Z,70.88
2016-05-05T03:59:10.846Z,70.88
2016-05-05T04:00:10.879Z,70.88
2016-05-05T04:01:10.898Z,71.26
2016-05-05T04:02:10.932Z,71.45
2016-05-05T04:03:10.965Z,71.36
2016-05-05T04:04:11.000Z,70.4
2016-05-05T04:05:11.018Z,70.78
2016-05-05T04:06:11.052Z,70.98
2016-05-05T04:07:11.087Z,71.07
2016-05-05T04:08:10.948Z,71.17
2016-05-05T04:09:11.154Z,70.59
2016-05-05T04:10:11.172Z,70.69
2016-05-05T04:11:11.190Z,70.88
2016-05-05T04:12:11.240Z,70.69
2016-05-05T04:13:11.259Z,70.88
2016-05-05T04:14:11.292Z,71.36
2016-05-05T04:15:11.342Z,70.78
2016-05-05T04:16:11.361Z,71.07
2016-05-05T04:17:11.379Z,71.17
2016-05-05T04:18:11.413Z,70.78
2016-05-05T04:19:11.291Z,71.36
2016-05-05T04:20:11.464Z,71.45
2016-05-05T04:21:11.499Z,71.45
2016-05-05T04:22:11.533Z,71.73
2016-05-05T04:23:11.410Z,71.26
2016-05-05T04:24:11.600Z,70.88
2016-05-05T04:25:11.619Z,70.5
2016-05-05T04:26:11.653Z,69.84
2016-05-05T04:27:11.672Z,69.65
2016-05-05T04:28:11.721Z,69.87
2016-05-05T04:29:11.739Z,70.06
2016-05-05T04:30:11.757Z,69.65
2016-05-05T04:31:11.791Z,69.4
2016-05-05T04:32:11.826Z,68.98
2016-05-05T04:33:11.859Z,69.4
2016-05-05T04:34:11.893Z,67.88
2016-05-05T04:35:11.754Z,66.74
2016-05-05T04:36:11.946Z,66.39
2016-05-05T04:37:11.979Z,66.11
2016-05-05T04:38:11.842Z,65.44
2016-05-05T04:39:12.032Z,65.35
2016-05-05T04:40:12.065Z,65.35
2016-05-05T04:41:12.100Z,65.35
2016-05-05T04:42:12.134Z,65.63
2016-05-05T04:43:12.167Z,66.11
2016-05-05T04:44:12.045Z,67.02
2016-05-05T04:45:12.220Z,66.46
2016-05-05T04:46:12.098Z,66.46
2016-05-05T04:47:12.272Z,66.55
2016-05-05T04:48:12.305Z,66.83
2016-05-05T04:49:12.340Z,66.74
2016-05-05T04:50:12.374Z,67.4
2016-05-05T04:51:12.408Z,67.88
2016-05-05T04:52:12.441Z,67.88
2016-05-05T04:53:12.461Z,67.4
2016-05-05T04:54:12.494Z,66.55
2016-05-05T04:55:12.527Z,66.3
2016-05-05T04:56:12.562Z,65.92
2016-05-05T04:57:12.580Z,65.92
2016-05-05T04:58:12.457Z,65.54
2016-05-05T04:59:12.649Z,65.06
2016-05-05T05:00:12.682Z,64.97
2016-05-05T05:01:12.716Z,65.25
2016-05-05T05:02:12.735Z,64.87
2016-05-05T05:03:12.768Z,64.78
2016-05-05T05:04:12.801Z,65.25
2016-05-05T05:05:12.835Z,65.44
2016-05-05T05:06:12.855Z,65.06
2016-05-05T05:07:12.888Z,65.16
2016-05-05T05:08:12.923Z,64.87
2016-05-05T05:09:13.284Z,65.16
2016-05-05T05:10:12.974Z,64.97
2016-05-05T05:11:12.851Z,65.54
2016-05-05T05:12:13.043Z,64.78
2016-05-05T05:13:12.920Z,64.24
2016-05-05T05:14:13.110Z,64.05
2016-05-05T05:15:13.145Z,64.34
2016-05-05T05:16:13.178Z,64.24
2016-05-05T05:17:13.211Z,64.14
2016-05-05T05:18:13.230Z,64.24
2016-05-05T05:19:13.248Z,64.05
2016-05-05T05:20:13.298Z,63.76
2016-05-05T05:21:13.317Z,63.39
2016-05-05T05:22:13.350Z,63.48
2016-05-05T05:23:13.228Z,63.39
2016-05-05T05:24:14.278Z,63.1
2016-05-05T05:25:13.452Z,63.29
2016-05-05T05:26:13.471Z,62.91
2016-05-05T05:27:13.504Z,63.2
2016-05-05T05:28:13.538Z,63.39
2016-05-05T05:29:13.572Z,62.91
2016-05-05T05:30:13.591Z,63.1
2016-05-05T05:31:13.624Z,61.68
2016-05-05T05:32:13.674Z,61.68
2016-05-05T05:33:13.693Z,61.77
2016-05-05T05:34:13.726Z,61.04
2016-05-05T05:35:13.745Z,61.42
2016-05-05T05:36:13.779Z,61.42
2016-05-05T05:37:13.812Z,61.32
2016-05-05T05:38:13.690Z,61.52
2016-05-05T05:39:13.927Z,60.66
2016-05-05T05:40:13.915Z,60.85
2016-05-05T05:41:13.948Z,60.38
2016-05-05T05:42:13.982Z,60.57
2016-05-05T05:43:14.000Z,61.04
2016-05-05T05:44:14.034Z,60.28
2016-05-05T05:45:14.068Z,60.28
2016-05-05T05:46:14.103Z,59.8
2016-05-05T05:47:14.136Z,60.47
2016-05-05T05:48:14.155Z,60.38
2016-05-05T05:49:14.204Z,60.18
2016-05-05T05:50:14.222Z,59.52
2016-05-05T05:51:14.256Z,59.8
2016-05-05T05:52:14.134Z,59.9
2016-05-05T05:53:14.308Z,58.88
2016-05-05T05:54:14.186Z,58.4
2016-05-05T05:55:14.377Z,58.4
2016-05-05T05:56:14.238Z,58.12
2016-05-05T05:57:14.288Z,58.22
2016-05-05T05:58:14.478Z,58.22
2016-05-05T05:59:14.497Z,58.59
2016-05-05T06:00:14.530Z,58.59
2016-05-05T06:01:14.565Z,58.5
2016-05-05T06:02:14.598Z,58.22
2016-05-05T06:03:14.616Z,57.65
2016-05-05T06:04:14.666Z,57.17
2016-05-05T06:05:14.701Z,56.88
2016-05-05T06:06:14.735Z,57.1
2016-05-05T06:07:14.752Z,57.55
2016-05-05T06:08:14.786Z,57.39
2016-05-05T06:09:14.820Z,57.26
2016-05-05T06:10:14.855Z,57.65
2016-05-05T06:11:14.873Z,57.36
2016-05-05T06:12:14.922Z,57.07
2016-05-05T06:13:14.940Z,57.39
2016-05-05T06:14:14.975Z,57.48
2016-05-05T06:15:15.008Z,56.63
2016-05-05T06:16:15.026Z,56.15
2016-05-05T06:17:15.061Z,56.15
2016-05-05T06:18:15.094Z,57.39
2016-05-05T06:19:14.972Z,57.29
2016-05-05T06:20:15.162Z,55.96
2016-05-05T06:21:15.197Z,56.15
2016-05-05T06:22:15.089Z,56.15
2016-05-05T06:23:15.243Z,56.15
2016-05-05T06:24:15.293Z,56.72
2016-05-05T06:25:15.310Z,56.63
2016-05-05T06:26:15.189Z,56.15
2016-05-05T06:27:15.379Z,56.05
2016-05-05T06:28:15.412Z,55.61
2016-05-05T06:29:15.290Z,55.22
2016-05-05T06:30:15.480Z,55.51
2016-05-05T06:31:15.515Z,55.42
2016-05-05T06:32:15.549Z,55.42
2016-05-05T06:33:15.582Z,54.18
2016-05-05T06:34:15.601Z,54.18
2016-05-05T06:35:15.634Z,54.47
2016-05-05T06:36:15.668Z,54.66
2016-05-05T06:37:15.703Z,54.47
2016-05-05T06:38:15.564Z,54.75
2016-05-05T06:39:16.254Z,54.37
2016-05-05T06:40:15.789Z,54.56
2016-05-05T06:41:15.822Z,54.18
2016-05-05T06:42:15.857Z,54.02
2016-05-05T06:43:15.890Z,53.25
2016-05-05T06:44:15.925Z,53.06
2016-05-05T06:45:15.958Z,53.54
2016-05-05T06:46:16.008Z,53.25
2016-05-05T06:47:16.011Z,53.64
2016-05-05T06:48:16.060Z,54.3
2016-05-05T06:49:16.078Z,54.21
2016-05-05T06:50:16.128Z,53.16
2016-05-05T06:51:16.161Z,52.97
2016-05-05T06:52:16.180Z,53.64
2016-05-05T06:53:16.214Z,53.92
2016-05-05T06:54:16.249Z,54.21
2016-05-05T06:55:16.282Z,54.21
2016-05-05T06:56:16.316Z,53.16
2016-05-05T06:57:16.335Z,53.09
2016-05-05T06:58:16.368Z,53
2016-05-05T06:59:16.402Z,52.52
2016-05-05T07:00:16.451Z,52.23
2016-05-05T07:01:16.471Z,52.9
2016-05-05T07:02:16.348Z,52.33
2016-05-05T07:03:16.538Z,52.33
2016-05-05T07:04:16.588Z,52.52
2016-05-05T07:05:16.607Z,52.61
2016-05-05T07:06:16.640Z,52.42
2016-05-05T07:07:16.674Z,51.95
2016-05-05T07:08:16.707Z,52.52
2016-05-05T07:09:16.742Z,52.14
2016-05-05T07:10:16.776Z,52.52
2016-05-05T07:11:16.794Z,51.18
2016-05-05T07:12:16.828Z,51.47
2016-05-05T07:13:16.862Z,51.66
2016-05-05T07:14:16.896Z,51.28
2016-05-05T07:15:16.930Z,51.09
2016-05-05T07:16:16.963Z,51.4
2016-05-05T07:17:16.998Z,51.59
2016-05-05T07:18:17.016Z,51.31
2016-05-05T07:19:16.909Z,50.45
2016-05-05T07:20:17.083Z,50.26
2016-05-05T07:21:17.117Z,49.68
2016-05-05T07:22:16.995Z,49.02
2016-05-05T07:23:17.185Z,49.4
2016-05-05T07:24:17.610Z,49.49
2016-05-05T07:25:17.253Z,48.83
2016-05-05T07:26:17.288Z,47.68
2016-05-05T07:27:17.321Z,48.16
2016-05-05T07:28:17.355Z,48.63
2016-05-05T07:29:17.389Z,48.25
2016-05-05T07:30:17.424Z,47.03
2016-05-05T07:31:17.457Z,45.7
2016-05-05T07:32:17.491Z,46.47
2016-05-05T07:33:17.525Z,45.79
2016-05-05T07:34:17.387Z,46.2
2016-05-05T07:35:17.593Z,45.82
2016-05-05T07:36:17.627Z,47.13
2016-05-05T07:37:17.660Z,46.94
2016-05-05T07:38:17.695Z,45.92
2016-05-05T07:39:17.728Z,44.98
2016-05-05T07:40:17.763Z,44.31
2016-05-05T07:41:17.781Z,43.19
2016-05-05T07:42:17.814Z,41.85
2016-05-05T07:43:17.849Z,41.47
2016-05-05T07:44:17.883Z,41.47
2016-05-05T07:45:17.917Z,41.11
2016-05-05T07:46:17.950Z,40.92
2016-05-05T07:47:18.000Z,37.78
2016-05-05T07:48:18.019Z,36.77
2016-05-05T07:49:18.052Z,35.25
2016-05-05T07:50:18.087Z,33.47
2016-05-05T07:51:18.136Z,32.14
2016-05-05T07:52:18.155Z,32.46
2016-05-05T07:53:18.203Z,31.56
2016-05-05T07:54:18.191Z,32.14
2016-05-05T07:55:18.271Z,31.37
2016-05-05T07:56:18.305Z,29.77
2016-05-05T07:57:18.183Z,28.63
2016-05-05T07:58:18.233Z,28.55
2016-05-05T07:59:18.267Z,28.26
2016-05-05T08:00:18.457Z,28.16
2016-05-05T08:01:18.507Z,27.22
2016-05-05T08:02:18.540Z,27.02
2016-05-05T08:03:18.574Z,26.45
2016-05-05T08:04:18.624Z,25.87
2016-05-05T08:05:18.658Z,25.03
2016-05-05T08:06:18.693Z,25.7
2016-05-05T08:07:18.741Z,25.62
2016-05-05T08:08:18.618Z,26.54
2016-05-05T08:09:18.826Z,28.45
2016-05-05T08:10:18.703Z,27.67
2016-05-05T08:11:18.737Z,28.07
2016-05-05T08:12:18.942Z,28.64
2016-05-05T08:13:18.992Z,27.58
2016-05-05T08:14:19.026Z,27.12
2016-05-05T08:15:19.060Z,27.8
2016-05-05T08:16:19.109Z,27.78
2016-05-05T08:17:19.158Z,27.3
2016-05-05T08:18:19.193Z,26.94
2016-05-05T08:19:19.227Z,25.39
2016-05-05T08:20:19.276Z,25.49
2016-05-05T08:21:19.311Z,24.44
2016-05-05T08:22:19.204Z,24.26
2016-05-05T08:23:19.409Z,23.13
2016-05-05T08:24:19.412Z,23.61
2016-05-05T08:25:19.493Z,24.38
2016-05-05T08:26:19.527Z,24.18
2016-05-05T08:27:19.577Z,23.69
2016-05-05T08:28:19.627Z,22.74
2016-05-05T08:29:19.660Z,22.93
2016-05-05T08:30:19.710Z,22.67
2016-05-05T08:31:19.603Z,23.71
2016-05-05T08:32:19.808Z,24.27
2016-05-05T08:33:19.843Z,24.27
2016-05-05T08:34:19.877Z,23.79
2016-05-05T08:35:19.926Z,21.88
2016-05-05T08:36:19.819Z,22.46
2016-05-05T08:37:20.026Z,23.43
2016-05-05T08:38:20.059Z,24.27
2016-05-05T08:39:21.452Z,23.4
2016-05-05T08:40:20.142Z,22.85
2016-05-05T08:41:20.192Z,21.98
2016-05-05T08:42:20.085Z,22.36
2016-05-05T08:43:20.276Z,24.28
2016-05-05T08:44:20.325Z,24.26
2016-05-05T08:45:20.376Z,23.69
2016-05-05T08:46:20.409Z,24.65
2016-05-05T08:47:20.458Z,25.79
2016-05-05T08:48:20.508Z,26.73
2016-05-05T08:49:20.558Z,25.79
2016-05-05T08:50:20.592Z,24.62
2016-05-05T08:51:20.641Z,25.31
2016-05-05T08:52:20.691Z,26.25
2016-05-05T08:53:20.725Z,27.47
2016-05-05T08:54:20.774Z,27.94
2016-05-05T08:55:20.824Z,27.37
2016-05-05T08:56:20.858Z,26.9
2016-05-05T08:57:20.751Z,29.02
2016-05-05T08:58:20.957Z,29.27
2016-05-05T08:59:20.990Z,29.94
2016-05-05T09:00:21.041Z,31.74
2016-05-05T09:01:21.075Z,31.72
2016-05-05T09:02:21.123Z,31.07
2016-05-05T09:03:21.174Z,29.83
2016-05-05T09:04:21.207Z,30.22
2016-05-05T09:05:21.257Z,29.94
2016-05-05T09:06:21.149Z,28.99
2016-05-05T09:07:21.340Z,30.04
2016-05-05T09:08:21.374Z,30.41
2016-05-05T09:09:21.846Z,30.49
2016-05-05T09:10:21.473Z,30.58
2016-05-05T09:11:21.507Z,28.97
2016-05-05T09:12:21.541Z,27.58
2016-05-05T09:13:21.591Z,25.67
2016-05-05T09:14:21.625Z,25.01
2016-05-05T09:15:21.674Z,25.57
2016-05-05T09:16:21.709Z,25.59
2016-05-05T09:17:21.759Z,24.44
2016-05-05T09:18:21.791Z,24.44
2016-05-05T09:19:21.826Z,25.11
2016-05-05T09:20:21.875Z,24.23
2016-05-05T09:21:21.909Z,22.92
2016-05-05T09:22:21.959Z,23.02
2016-05-05T09:23:22.008Z,24.35
2016-05-05T09:24:22.042Z,24.81
2016-05-05T09:25:22.075Z,24.73
2016-05-05T09:26:21.970Z,23.57
2016-05-05T09:27:22.175Z,24.26
2016-05-05T09:28:22.225Z,24.63
2016-05-05T09:29:22.259Z,23.96
2016-05-05T09:30:22.310Z,21.96
2016-05-05T09:31:22.348Z,22.53
2016-05-05T09:32:22.792Z,21.2
2016-05-05T09:33:22.434Z,21.39
2016-05-05T09:34:22.468Z,24.27
2016-05-05T09:35:22.502Z,23.77
2016-05-05T09:36:22.552Z,23.02
2016-05-05T09:37:22.601Z,23.69
2016-05-05T09:38:22.649Z,21.88
2016-05-05T09:39:23.403Z,21.11
2016-05-05T09:40:22.734Z,21.5
2016-05-05T09:41:22.768Z,21.31
2016-05-05T09:42:22.823Z,21.88
2016-05-05T09:43:22.862Z,20.43
2016-05-05T09:44:22.895Z,21.3
2016-05-05T09:45:22.959Z,21.3
2016-05-05T09:46:22.995Z,21.97
2016-05-05T09:47:22.887Z,21.58
2016-05-05T09:48:24.156Z,21.31
2016-05-05T09:49:23.128Z,22.06
2016-05-05T09:50:23.177Z,21.79
2016-05-05T09:51:23.211Z,22.27
2016-05-05T09:52:23.261Z,22.74
2016-05-05T09:53:23.169Z,21.31
2016-05-05T09:54:23.203Z,24.2
2016-05-05T09:55:23.409Z,23.1
2016-05-05T09:56:23.443Z,23.79
2016-05-05T09:57:23.492Z,23.88
2016-05-05T09:58:23.542Z,24.27
2016-05-05T09:59:23.591Z,23.3
2016-05-05T10:00:23.641Z,22.84
2016-05-05T10:01:23.675Z,22.63
2016-05-05T10:02:23.724Z,22.93
2016-05-05T10:03:23.774Z,24.45
2016-05-05T10:04:23.823Z,25.03
2016-05-05T10:05:23.857Z,25.21
2016-05-05T10:06:23.766Z,24.24
2016-05-05T10:07:23.957Z,22.64
2016-05-05T10:08:24.006Z,22.56
2016-05-05T10:09:23.899Z,23.62
2016-05-05T10:10:25.137Z,23.21
2016-05-05T10:11:24.139Z,22.36
2016-05-05T10:12:24.190Z,22.16
2016-05-05T10:13:24.239Z,21.88
2016-05-05T10:14:24.272Z,21.11
2016-05-05T10:15:24.166Z,21.12
2016-05-05T10:16:24.372Z,20.08
2016-05-05T10:17:24.420Z,20.66
2016-05-05T10:18:24.471Z,21.44
2016-05-05T10:19:24.505Z,20.94
2016-05-05T10:20:24.553Z,21.33
2016-05-05T10:21:24.604Z,21.22
2016-05-05T10:22:24.653Z,21.04
2016-05-05T10:23:24.703Z,20.95
2016-05-05T10:24:24.971Z,22.58
2016-05-05T10:25:24.786Z,23.61
2016-05-05T10:26:24.680Z,22.17
2016-05-05T10:27:24.886Z,21.31
2016-05-05T10:28:25.857Z,22.76
2016-05-05T10:29:24.985Z,22.46
2016-05-05T10:30:25.034Z,23.33
2016-05-05T10:31:25.068Z,23.51
2016-05-05T10:32:25.119Z,23.13
2016-05-05T10:33:25.168Z,23.99
2016-05-05T10:34:25.217Z,23.5
2016-05-05T10:35:25.266Z,24.09
2016-05-05T10:36:25.316Z,25.15
2016-05-05T10:37:25.366Z,23.79
2016-05-05T10:38:25.415Z,23.04
2016-05-05T10:39:25.434Z,22.28
2016-05-05T10:40:25.498Z,21.99
2016-05-05T10:41:25.548Z,21.31
2016-05-05T10:42:25.598Z,21.42
2016-05-05T10:43:25.491Z,21.33
2016-05-05T10:44:25.681Z,21.14
2016-05-05T10:45:25.731Z,21.15
2016-05-05T10:46:25.781Z,22.39
2016-05-05T10:47:25.846Z,24.3
2016-05-05T10:48:25.879Z,23.98
2016-05-05T10:49:25.929Z,23.13
2016-05-05T10:50:25.978Z,22.28
2016-05-05T10:51:26.028Z,22.09
2016-05-05T10:52:26.078Z,22.57
2016-05-05T10:53:26.111Z,22.39
2016-05-05T10:54:27.505Z,23.14
2016-05-05T10:55:26.602Z,22.09
2016-05-05T10:56:26.355Z,21.13
2016-05-05T10:57:26.310Z,23.75
2016-05-05T10:58:26.392Z,24.96
2016-05-05T10:59:26.484Z,26.07
2016-05-05T11:00:26.562Z,26.47
2016-05-05T11:01:26.656Z,24.28
2016-05-05T11:02:26.764Z,24.29
2016-05-05T11:03:26.821Z,23.34
2016-05-05T11:04:26.887Z,23.08
2016-05-05T11:05:26.796Z,22.47
2016-05-05T11:06:27.018Z,23.62
2016-05-05T11:07:27.083Z,24.19
2016-05-05T11:08:27.142Z,24.46
2016-05-05T11:09:27.056Z,23.43
2016-05-05T11:10:27.095Z,22.76
2016-05-05T11:11:27.150Z,22.39
2016-05-05T11:12:27.346Z,22.29
2016-05-05T11:13:27.241Z,23.92
2016-05-05T11:14:27.465Z,24.66
2016-05-05T11:15:27.516Z,25.13
2016-05-05T11:16:27.568Z,26.37
2016-05-05T11:17:27.603Z,25.21
2016-05-05T11:18:27.670Z,24.18
2016-05-05T11:19:27.720Z,23.62
2016-05-05T11:20:27.755Z,23.05
2016-05-05T11:21:27.790Z,24.29
2016-05-05T11:22:27.855Z,23.43
2016-05-05T11:23:27.902Z,23.33
2016-05-05T11:24:27.952Z,22.57
2016-05-05T11:25:28.002Z,22.09
2016-05-05T11:26:28.036Z,22.38
2016-05-05T11:27:28.086Z,21.42
2016-05-05T11:28:28.136Z,21.62
2016-05-05T11:29:28.186Z,24.13
2016-05-05T11:30:28.235Z,23.52
2016-05-05T11:31:28.129Z,22.19
2016-05-05T11:32:28.336Z,21.35
2016-05-05T11:33:28.384Z,21.73
2016-05-05T11:34:28.433Z,23.16
2016-05-05T11:35:28.499Z,23.05
2016-05-05T11:36:28.392Z,22.77
2016-05-05T11:37:28.582Z,23.07
2016-05-05T11:38:28.632Z,22.76
2016-05-05T11:39:28.526Z,23.93
2016-05-05T11:40:28.575Z,23.04
2016-05-05T11:41:28.781Z,23.81
2016-05-05T11:42:28.690Z,23.14
2016-05-05T11:43:28.880Z,21.71
2016-05-05T11:44:28.929Z,21.14
2016-05-05T11:45:28.980Z,20.19
2016-05-05T11:46:28.873Z,21.75
2016-05-05T11:47:29.094Z,21.53
2016-05-05T11:48:29.128Z,21.17
2016-05-05T11:49:29.193Z,21.24
2016-05-05T11:50:29.227Z,21.44
2016-05-05T11:51:29.276Z,22.78
2016-05-05T11:52:29.170Z,21.34
2016-05-05T11:53:29.376Z,21.35
2016-05-05T11:54:29.426Z,22.4
2016-05-05T11:55:29.476Z,22.38
2016-05-05T11:56:29.525Z,21.31
2016-05-05T11:57:29.574Z,20.67
2016-05-05T11:58:29.467Z,20.86
2016-05-05T11:59:29.673Z,21.54
2016-05-05T12:00:29.722Z,20.48
2016-05-05T12:01:29.772Z,20.01
2016-05-05T12:02:29.822Z,20.96
2016-05-05T12:03:29.872Z,20.57
2016-05-05T12:04:29.765Z,21.26
2016-05-05T12:05:29.970Z,21.83
2016-05-05T12:06:30.020Z,23.52
2016-05-05T12:07:30.085Z,22.75
2016-05-05T12:08:30.119Z,21.34
2016-05-05T12:09:30.028Z,22.19
2016-05-05T12:10:30.219Z,22.17
2016-05-05T12:11:30.283Z,22.94
2016-05-05T12:12:30.161Z,22.27
2016-05-05T12:13:30.382Z,22.02
2016-05-05T12:14:30.432Z,22.1
2016-05-05T12:15:30.325Z,22.39
2016-05-05T12:16:30.532Z,22.47
2016-05-05T12:17:30.597Z,22.46
2016-05-05T12:18:30.630Z,22.57
2016-05-05T12:19:30.524Z,22.57
2016-05-05T12:20:30.573Z,21.23
2016-05-05T12:21:30.779Z,22.67
2016-05-05T12:22:30.828Z,22.36
2016-05-05T12:23:30.878Z,21.13
2016-05-05T12:24:30.944Z,21.42
2016-05-05T12:25:30.978Z,21.72
2016-05-05T12:26:31.027Z,22.39
2016-05-05T12:27:31.108Z,21.82
2016-05-05T12:28:31.126Z,22.11
2016-05-05T12:29:31.175Z,21.73
2016-05-05T12:30:31.226Z,22.2
2016-05-05T12:31:31.290Z,22.3
2016-05-05T12:32:31.324Z,21.35
2016-05-05T12:33:31.389Z,20.59
2016-05-05T12:34:31.423Z,20.86
2016-05-05T12:35:31.488Z,20
2016-05-05T12:36:31.538Z,21.06
2016-05-05T12:37:31.588Z,23.16
2016-05-05T12:38:31.638Z,23.34
2016-05-05T12:39:31.686Z,24.22
2016-05-05T12:40:31.752Z,24.11
2016-05-05T12:41:31.786Z,25.55
2016-05-05T12:42:31.679Z,26.58
2016-05-05T12:43:31.885Z,26.21
2016-05-05T12:44:31.935Z,26.21
2016-05-05T12:45:31.985Z,27.34
2016-05-05T12:46:32.034Z,26.29
2016-05-05T12:47:31.912Z,26
2016-05-05T12:48:32.133Z,26.76
2016-05-05T12:49:32.182Z,25.52
2016-05-05T12:50:32.216Z,24.19
2016-05-05T12:51:32.265Z,24.49
2016-05-05T12:52:32.315Z,24.2
2016-05-05T12:53:32.381Z,23.81
2016-05-05T12:54:33.102Z,23.15
2016-05-05T12:55:32.746Z,23.05